Time;durP1;ratioP1;P1;durP2;ratioP2;P2;SDS_P1;SDS_P2;PMS_P1;PMS_P2;Temp;Humidity;BMP_temperature;BMP_pressure;BME280_temperature;BME280_humidity;BME280_pressure;Samples;Min_cycle;Max_cycle;Signal;HPM_P1;HPM_P2
2024/03/17 00:02:16;;;;;;;1.40;1.20;;;;;;;;;;5067698;28;20071;-59
2024/03/17 00:04:43;;;;;;;2.25;1.52;;;;;;;;;;5057761;28;20428;-61
2024/03/17 00:07:11;;;;;;;1.80;1.60;;;;;;;;;;5077004;28;20051;-61
2024/03/17 00:09:38;;;;;;;1.42;1.27;;;;;;;;;;5067083;28;20055;-61
2024/03/17 00:12:05;;;;;;;4.68;1.30;;;;;;;;;;5063700;28;20053;-65
2024/03/17 00:14:34;;;;;;;2.00;1.40;;;;;;;;;;5066530;28;20429;-62
2024/03/17 00:17:00;;;;;;;1.40;1.30;;;;;;;;;;5080480;28;20391;-58
2024/03/17 00:19:28;;;;;;;3.42;1.40;;;;;;;;;;5062946;28;20101;-59
2024/03/17 00:21:54;;;;;;;1.55;1.45;;;;;;;;;;5064412;28;20405;-60
2024/03/17 00:24:24;;;;;;;2.28;1.40;;;;;;;;;;5083927;28;20044;-59
2024/03/17 00:26:50;;;;;;;2.08;1.55;;;;;;;;;;5063455;28;20041;-60
2024/03/17 00:29:17;;;;;;;1.60;1.20;;;;;;;;;;5061456;28;20076;-58
2024/03/17 00:31:44;;;;;;;1.88;1.40;;;;;;;;;;5058339;28;20059;-58
2024/03/17 00:34:11;;;;;;;1.70;1.33;;;;;;;;;;5063121;28;20048;-60
2024/03/17 00:36:37;;;;;;;1.83;1.30;;;;;;;;;;5076131;28;20040;-61
2024/03/17 00:39:05;;;;;;;3.13;1.33;;;;;;;;;;5060124;28;20471;-59
2024/03/17 00:41:33;;;;;;;1.80;1.30;;;;;;;;;;5062078;28;20056;-58
2024/03/17 00:44:02;;;;;;;2.08;1.35;;;;;;;;;;5063889;28;20380;-58
2024/03/17 00:46:29;;;;;;;1.17;1.02;;;;;;;;;;5054490;28;20036;-58
2024/03/17 00:48:57;;;;;;;1.30;1.17;;;;;;;;;;5062399;28;20055;-59
2024/03/17 00:51:23;;;;;;;1.77;1.40;;;;;;;;;;5077114;28;20049;-61
2024/03/17 00:53:50;;;;;;;1.55;1.25;;;;;;;;;;5062746;28;20044;-60
2024/03/17 00:56:17;;;;;;;2.05;1.27;;;;;;;;;;5060511;28;20074;-59
2024/03/17 00:58:46;;;;;;;1.42;1.30;;;;;;;;;;5044420;28;20434;-60
2024/03/17 01:01:13;;;;;;;3.15;1.48;;;;;;;;;;5043489;28;20050;-61
2024/03/17 01:03:41;;;;;;;1.63;1.50;;;;;;;;;;5038809;28;20408;-61
2024/03/17 01:06:08;;;;;;;2.90;1.55;;;;;;;;;;5039802;28;20407;-60
2024/03/17 01:08:36;;;;;;;1.60;1.27;;;;;;;;;;5066580;28;20044;-59
2024/03/17 01:11:03;;;;;;;1.90;1.20;;;;;;;;;;5054234;28;20053;-59
2024/03/17 01:13:31;;;;;;;1.67;1.40;;;;;;;;;;5062748;28;20094;-59
2024/03/17 01:15:58;;;;;;;1.65;1.30;;;;;;;;;;5058700;28;20352;-61
2024/03/17 01:18:26;;;;;;;3.90;1.50;;;;;;;;;;5063708;28;20065;-59
2024/03/17 01:20:52;;;;;;;2.30;1.33;;;;;;;;;;5065816;28;20048;-58
2024/03/17 01:23:20;;;;;;;1.40;1.30;;;;;;;;;;5058774;28;20485;-58
2024/03/17 01:25:46;;;;;;;1.30;1.20;;;;;;;;;;5058723;28;20057;-58
2024/03/17 01:28:14;;;;;;;2.40;1.30;;;;;;;;;;5064682;28;20456;-59
2024/03/17 01:30:40;;;;;;;1.27;1.17;;;;;;;;;;5065171;28;20041;-61
2024/03/17 01:33:10;;;;;;;3.45;1.25;;;;;;;;;;5053479;28;20044;-65
2024/03/17 01:35:36;;;;;;;1.70;1.40;;;;;;;;;;5053969;28;20079;-59
2024/03/17 01:38:04;;;;;;;1.35;1.23;;;;;;;;;;5065421;28;20561;-59
2024/03/17 01:40:30;;;;;;;1.55;1.20;;;;;;;;;;5060378;28;20537;-59
2024/03/17 01:42:58;;;;;;;1.30;1.20;;;;;;;;;;5066612;28;20061;-59
2024/03/17 01:45:26;;;;;;;1.65;1.20;;;;;;;;;;5059580;28;20452;-58
2024/03/17 01:47:54;;;;;;;2.00;1.20;;;;;;;;;;5065153;28;20556;-58
2024/03/17 01:50:24;;;;;;;1.20;1.10;;;;;;;;;;5064521;28;20048;-59
2024/03/17 01:52:52;;;;;;;1.52;1.20;;;;;;;;;;5067034;28;20055;-61
2024/03/17 01:55:19;;;;;;;1.40;1.02;;;;;;;;;;5060145;28;20053;-60
2024/03/17 01:57:46;;;;;;;1.45;1.30;;;;;;;;;;5061135;28;20456;-59
2024/03/17 02:00:14;;;;;;;1.20;1.10;;;;;;;;;;5066278;28;20056;-63
2024/03/17 02:02:41;;;;;;;2.15;1.27;;;;;;;;;;5069455;28;20045;-58
2024/03/17 02:05:08;;;;;;;1.20;0.95;;;;;;;;;;5066248;28;20472;-58
2024/03/17 02:07:37;;;;;;;1.67;0.90;;;;;;;;;;5068333;28;20045;-60
2024/03/17 02:10:05;;;;;;;1.55;1.27;;;;;;;;;;5064642;28;20069;-59
2024/03/17 02:12:32;;;;;;;1.20;1.10;;;;;;;;;;5069456;28;20059;-59
2024/03/17 02:14:59;;;;;;;0.90;0.90;;;;;;;;;;5060186;28;20056;-56
2024/03/17 02:17:27;;;;;;;1.48;1.20;;;;;;;;;;5058599;28;20051;-58
2024/03/17 02:19:53;;;;;;;1.58;1.20;;;;;;;;;;5058409;28;20413;-59
2024/03/17 02:22:22;;;;;;;1.63;1.35;;;;;;;;;;5067416;28;20052;-61
2024/03/17 02:24:48;;;;;;;1.48;1.08;;;;;;;;;;5068962;28;20054;-59
2024/03/17 02:27:16;;;;;;;1.92;1.17;;;;;;;;;;5069721;28;20493;-59
2024/03/17 02:29:42;;;;;;;1.30;1.20;;;;;;;;;;5066682;28;20444;-58
2024/03/17 02:32:11;;;;;;;1.45;1.25;;;;;;;;;;5057874;28;20476;-59
2024/03/17 02:34:39;;;;;;;1.20;1.10;;;;;;;;;;5067257;28;20421;-61
2024/03/17 02:37:06;;;;;;;1.40;1.00;;;;;;;;;;5065525;28;20477;-58
2024/03/17 02:39:35;;;;;;;1.60;1.30;;;;;;;;;;5062178;28;20391;-58
2024/03/17 02:42:03;;;;;;;1.10;0.98;;;;;;;;;;5068329;28;20060;-58
2024/03/17 02:44:31;;;;;;;2.45;1.38;;;;;;;;;;5063782;28;20041;-59
2024/03/17 02:46:58;;;;;;;1.30;1.20;;;;;;;;;;5062014;28;20537;-60
2024/03/17 02:49:26;;;;;;;1.20;1.00;;;;;;;;;;5060051;28;20052;-60
2024/03/17 02:51:55;;;;;;;1.55;1.10;;;;;;;;;;5063858;28;20471;-60
2024/03/17 02:54:22;;;;;;;1.55;1.10;;;;;;;;;;5063078;28;20048;-58
2024/03/17 02:56:51;;;;;;;1.70;1.13;;;;;;;;;;5068165;28;20082;-58
2024/03/17 02:59:18;;;;;;;3.22;1.35;;;;;;;;;;5058574;28;20072;-60
2024/03/17 03:01:46;;;;;;;1.50;1.00;;;;;;;;;;5051015;28;20485;-58
2024/03/17 03:04:13;;;;;;;1.20;1.10;;;;;;;;;;5060716;28;20453;-59
2024/03/17 03:06:40;;;;;;;3.38;1.30;;;;;;;;;;5060096;28;20117;-58
2024/03/17 03:09:13;;;;;;;1.35;1.20;;;;;;;;;;5068178;28;20698;-60
2024/03/17 03:11:40;;;;;;;2.53;1.40;;;;;;;;;;5069161;28;20071;-60
2024/03/17 03:14:09;;;;;;;1.50;1.40;;;;;;;;;;5067415;28;20071;-59
2024/03/17 03:16:37;;;;;;;2.30;1.58;;;;;;;;;;5062336;28;20738;-60
2024/03/17 03:19:05;;;;;;;2.50;1.50;;;;;;;;;;5066182;28;20060;-60
2024/03/17 03:21:32;;;;;;;1.98;1.60;;;;;;;;;;5055176;28;20502;-58
2024/03/17 03:23:59;;;;;;;1.55;1.40;;;;;;;;;;5057223;28;20057;-61
2024/03/17 03:26:28;;;;;;;1.60;1.50;;;;;;;;;;5063427;28;20068;-61
2024/03/17 03:28:56;;;;;;;1.55;1.40;;;;;;;;;;5062497;28;20118;-60
2024/03/17 03:31:24;;;;;;;2.75;1.20;;;;;;;;;;5061039;28;20106;-58
2024/03/17 03:33:52;;;;;;;2.38;1.25;;;;;;;;;;5065321;28;20056;-58
2024/03/17 03:36:20;;;;;;;1.95;1.60;;;;;;;;;;5059292;28;20057;-60
2024/03/17 03:38:48;;;;;;;2.20;1.45;;;;;;;;;;5066881;28;20055;-59
2024/03/17 03:41:16;;;;;;;2.28;1.50;;;;;;;;;;5066250;28;20627;-64
2024/03/17 03:43:45;;;;;;;1.65;1.38;;;;;;;;;;5066305;28;20045;-59
2024/03/17 03:46:13;;;;;;;2.10;1.55;;;;;;;;;;5062314;28;20052;-59
2024/03/17 03:48:42;;;;;;;2.42;1.48;;;;;;;;;;5055735;28;20380;-61
2024/03/17 03:51:10;;;;;;;1.95;1.30;;;;;;;;;;5055529;28;20206;-61
2024/03/17 03:53:38;;;;;;;3.05;1.42;;;;;;;;;;5058256;28;20494;-58
2024/03/17 03:56:07;;;;;;;1.73;1.63;;;;;;;;;;5057463;28;20040;-59
2024/03/17 03:58:35;;;;;;;1.58;1.40;;;;;;;;;;5067710;28;20049;-59
2024/03/17 04:01:02;;;;;;;2.08;1.50;;;;;;;;;;5060973;28;20166;-58
2024/03/17 04:03:29;;;;;;;3.88;1.67;;;;;;;;;;5058909;28;20049;-60
2024/03/17 04:06:04;;;;;;;2.65;1.20;;;;;;;;;;5054796;28;20083;-59
2024/03/17 04:08:31;;;;;;;1.77;1.40;;;;;;;;;;5045057;28;20048;-58
2024/03/17 04:11:00;;;;;;;3.03;1.40;;;;;;;;;;5045683;28;20068;-60
2024/03/17 04:13:29;;;;;;;1.52;1.30;;;;;;;;;;5042635;28;20045;-58
2024/03/17 04:15:56;;;;;;;1.20;1.10;;;;;;;;;;5044801;28;20049;-60
2024/03/17 04:18:25;;;;;;;1.50;1.40;;;;;;;;;;5041821;28;21829;-60
2024/03/17 04:20:53;;;;;;;2.10;1.50;;;;;;;;;;5044389;28;20414;-59
2024/03/17 04:23:23;;;;;;;2.03;1.60;;;;;;;;;;5047235;28;20056;-58
2024/03/17 04:25:51;;;;;;;2.13;1.45;;;;;;;;;;5040902;28;20409;-58
2024/03/17 04:28:19;;;;;;;1.35;1.25;;;;;;;;;;5045968;28;20037;-57
2024/03/17 04:30:47;;;;;;;3.15;1.60;;;;;;;;;;5042662;28;20078;-59
2024/03/17 04:33:16;;;;;;;2.78;1.30;;;;;;;;;;5044997;28;20060;-61
2024/03/17 04:35:44;;;;;;;1.88;1.60;;;;;;;;;;5047525;28;20060;-58
2024/03/17 04:38:14;;;;;;;2.33;1.52;;;;;;;;;;5041296;28;20060;-63
2024/03/17 04:40:43;;;;;;;2.58;1.35;;;;;;;;;;5048170;28;20053;-60
2024/03/17 04:43:10;;;;;;;2.10;1.48;;;;;;;;;;5048381;28;21596;-59
2024/03/17 04:45:38;;;;;;;3.35;1.60;;;;;;;;;;5042349;28;20692;-59
2024/03/17 04:48:05;;;;;;;2.67;1.70;;;;;;;;;;5056565;28;20580;-59
2024/03/17 04:50:33;;;;;;;1.80;1.60;;;;;;;;;;5065621;28;20048;-58
2024/03/17 04:53:00;;;;;;;2.60;1.90;;;;;;;;;;5066297;28;20056;-60
2024/03/17 04:55:28;;;;;;;1.92;1.50;;;;;;;;;;5064038;28;20052;-58
2024/03/17 04:57:57;;;;;;;2.30;1.80;;;;;;;;;;5083232;28;20056;-59
2024/03/17 05:00:24;;;;;;;2.40;1.55;;;;;;;;;;5060281;28;20052;-58
2024/03/17 05:02:53;;;;;;;2.00;1.77;;;;;;;;;;5063951;28;20505;-58
2024/03/17 05:05:23;;;;;;;2.90;1.90;;;;;;;;;;5067346;28;20055;-59
2024/03/17 05:07:51;;;;;;;1.92;1.52;;;;;;;;;;5064035;28;20071;-59
2024/03/17 05:10:18;;;;;;;2.17;1.85;;;;;;;;;;5059880;28;20056;-61
2024/03/17 05:12:47;;;;;;;1.77;1.42;;;;;;;;;;5074298;28;20063;-58
2024/03/17 05:15:16;;;;;;;1.75;1.45;;;;;;;;;;5061946;28;20432;-62
2024/03/17 05:17:44;;;;;;;3.03;1.65;;;;;;;;;;5039730;28;20457;-59
2024/03/17 05:20:13;;;;;;;2.17;1.80;;;;;;;;;;5044803;28;20051;-61
2024/03/17 05:22:40;;;;;;;2.53;1.63;;;;;;;;;;5040326;28;20110;-60
2024/03/17 05:25:08;;;;;;;2.90;1.75;;;;;;;;;;5049378;28;20056;-58
2024/03/17 05:27:35;;;;;;;2.20;1.50;;;;;;;;;;5063302;28;20059;-59
2024/03/17 05:30:04;;;;;;;1.88;1.60;;;;;;;;;;5069931;28;20049;-58
2024/03/17 05:32:33;;;;;;;2.55;1.73;;;;;;;;;;5069234;28;20041;-59
2024/03/17 05:35:01;;;;;;;1.98;1.67;;;;;;;;;;5063708;28;20044;-60
2024/03/17 05:37:28;;;;;;;2.03;1.60;;;;;;;;;;5059176;28;20046;-59
2024/03/17 05:39:55;;;;;;;4.47;1.88;;;;;;;;;;5067086;28;20060;-58
2024/03/17 05:42:23;;;;;;;2.50;1.65;;;;;;;;;;5069174;28;20049;-56
2024/03/17 05:44:50;;;;;;;2.97;1.92;;;;;;;;;;5061518;28;20048;-58
2024/03/17 05:47:19;;;;;;;2.05;1.48;;;;;;;;;;5066295;28;20336;-60
2024/03/17 05:49:47;;;;;;;2.80;1.75;;;;;;;;;;5068363;28;20408;-60
2024/03/17 05:52:15;;;;;;;3.63;1.90;;;;;;;;;;5061747;28;20571;-57
2024/03/17 05:54:42;;;;;;;2.83;1.92;;;;;;;;;;5058096;28;20055;-58
2024/03/17 05:57:12;;;;;;;2.65;1.80;;;;;;;;;;5069849;28;20040;-58
2024/03/17 05:59:39;;;;;;;2.67;1.98;;;;;;;;;;5084091;28;20417;-59
2024/03/17 06:02:10;;;;;;;2.45;2.00;;;;;;;;;;5066106;28;20575;-61
2024/03/17 06:04:38;;;;;;;3.38;1.88;;;;;;;;;;5075485;28;20057;-58
2024/03/17 06:07:07;;;;;;;1.95;1.55;;;;;;;;;;5056476;28;20056;-58
2024/03/17 06:09:34;;;;;;;3.20;1.73;;;;;;;;;;5061402;28;20086;-64
2024/03/17 06:12:01;;;;;;;4.75;1.90;;;;;;;;;;5083204;28;20036;-58
2024/03/17 06:14:28;;;;;;;2.35;1.60;;;;;;;;;;5068543;28;20049;-61
2024/03/17 06:16:55;;;;;;;1.70;1.60;;;;;;;;;;5048651;28;20045;-58
2024/03/17 06:19:23;;;;;;;2.15;1.58;;;;;;;;;;5043549;28;20414;-58
2024/03/17 06:21:51;;;;;;;2.55;1.80;;;;;;;;;;5040153;28;20074;-57
2024/03/17 06:24:20;;;;;;;2.05;1.67;;;;;;;;;;5047287;28;20053;-61
2024/03/17 06:26:48;;;;;;;2.53;1.80;;;;;;;;;;5048992;28;20049;-58
2024/03/17 06:29:16;;;;;;;2.13;1.65;;;;;;;;;;5062831;28;20498;-60
2024/03/17 06:31:45;;;;;;;3.38;1.95;;;;;;;;;;5061718;28;20045;-60
2024/03/17 06:34:14;;;;;;;3.10;1.95;;;;;;;;;;5059962;28;20049;-59
2024/03/17 06:36:42;;;;;;;5.40;2.20;;;;;;;;;;5066239;28;20059;-59
2024/03/17 06:39:10;;;;;;;2.63;1.90;;;;;;;;;;5062638;28;20160;-60
2024/03/17 06:41:38;;;;;;;2.40;2.00;;;;;;;;;;5064531;28;20040;-60
2024/03/17 06:44:06;;;;;;;2.92;2.13;;;;;;;;;;5065112;28;20437;-58
2024/03/17 06:46:34;;;;;;;2.47;1.73;;;;;;;;;;5058278;28;20040;-60
2024/03/17 06:49:01;;;;;;;3.53;2.30;;;;;;;;;;5057292;28;20052;-61
2024/03/17 06:51:28;;;;;;;2.35;1.67;;;;;;;;;;5062450;28;20493;-61
2024/03/17 06:53:56;;;;;;;2.67;1.88;;;;;;;;;;5062547;28;20433;-62
2024/03/17 06:56:24;;;;;;;3.90;2.50;;;;;;;;;;5057525;28;20406;-58
2024/03/17 06:58:53;;;;;;;3.53;2.28;;;;;;;;;;5060926;28;20064;-58
2024/03/17 07:01:20;;;;;;;4.30;2.35;;;;;;;;;;5068819;28;20212;-59
2024/03/17 07:03:48;;;;;;;5.45;2.40;;;;;;;;;;5066207;28;20472;-60
2024/03/17 07:06:15;;;;;;;3.15;2.50;;;;;;;;;;5067758;28;20044;-60
2024/03/17 07:08:43;;;;;;;4.63;2.45;;;;;;;;;;5065585;28;20083;-59
2024/03/17 07:11:10;;;;;;;2.72;1.58;;;;;;;;;;5054245;28;20119;-59
2024/03/17 07:13:38;;;;;;;2.63;2.17;;;;;;;;;;5049826;28;20053;-58
2024/03/17 07:16:07;;;;;;;4.38;2.38;;;;;;;;;;5068104;28;20057;-59
2024/03/17 07:18:35;;;;;;;3.00;2.42;;;;;;;;;;5067208;28;20044;-61
2024/03/17 07:21:04;;;;;;;2.78;2.00;;;;;;;;;;5060763;28;20591;-60
2024/03/17 07:23:32;;;;;;;3.45;2.30;;;;;;;;;;5066975;28;20102;-59
2024/03/17 07:26:00;;;;;;;3.15;2.30;;;;;;;;;;5066481;28;20044;-59
2024/03/17 07:28:28;;;;;;;3.30;2.60;;;;;;;;;;5060164;28;20391;-62
2024/03/17 07:30:56;;;;;;;3.60;2.28;;;;;;;;;;5065429;28;20045;-59
2024/03/17 07:33:25;;;;;;;3.13;2.25;;;;;;;;;;5061241;28;20056;-59
2024/03/17 07:35:54;;;;;;;4.15;2.70;;;;;;;;;;5060739;28;20280;-59
2024/03/17 07:38:22;;;;;;;3.67;2.28;;;;;;;;;;5059262;28;20052;-58
2024/03/17 07:40:58;;;;;;;4.40;2.13;;;;;;;;;;5062517;28;20057;-60
2024/03/17 07:43:25;;;;;;;4.38;2.72;;;;;;;;;;5058074;28;20123;-60
2024/03/17 07:46:00;;;;;;;3.10;2.42;;;;;;;;;;5060394;28;20060;-60
2024/03/17 07:48:29;;;;;;;3.30;2.28;;;;;;;;;;5062187;28;20053;-58
2024/03/17 07:50:57;;;;;;;3.28;2.20;;;;;;;;;;5058940;28;20467;-60
2024/03/17 07:53:26;;;;;;;3.28;2.20;;;;;;;;;;5060432;28;20052;-65
2024/03/17 07:56:00;;;;;;;2.03;1.67;;;;;;;;;;5057897;28;20071;-61
2024/03/17 07:58:28;;;;;;;4.23;2.30;;;;;;;;;;5058391;28;20532;-58
2024/03/17 08:01:00;;;;;;;2.40;2.10;;;;;;;;;;5067141;28;20310;-60
2024/03/17 08:03:29;;;;;;;2.45;1.65;;;;;;;;;;5064139;28;20435;-61
2024/03/17 08:05:57;;;;;;;2.60;2.13;;;;;;;;;;5065633;28;20110;-60
2024/03/17 08:08:24;;;;;;;2.20;1.67;;;;;;;;;;5059021;28;20075;-63
2024/03/17 08:10:52;;;;;;;2.83;1.85;;;;;;;;;;5064892;28;20071;-58
2024/03/17 08:13:19;;;;;;;2.45;2.00;;;;;;;;;;5068658;28;20471;-57
2024/03/17 08:15:46;;;;;;;3.17;1.98;;;;;;;;;;5062507;28;20048;-58
2024/03/17 08:18:14;;;;;;;4.07;2.60;;;;;;;;;;5057789;28;20670;-59
2024/03/17 08:20:43;;;;;;;4.82;1.60;;;;;;;;;;5065340;28;20049;-60
2024/03/17 08:23:11;;;;;;;2.33;1.80;;;;;;;;;;5051411;28;20048;-60
2024/03/17 08:25:39;;;;;;;2.88;2.00;;;;;;;;;;5057540;28;20044;-58
2024/03/17 08:28:07;;;;;;;3.22;2.20;;;;;;;;;;5057250;28;20045;-62
2024/03/17 08:30:34;;;;;;;3.60;1.88;;;;;;;;;;5062699;28;20458;-61
2024/03/17 08:33:01;;;;;;;2.17;1.70;;;;;;;;;;5059941;28;21250;-58
2024/03/17 08:35:29;;;;;;;2.45;1.80;;;;;;;;;;5065973;28;20371;-61
2024/03/17 08:37:59;;;;;;;2.67;1.95;;;;;;;;;;5059958;28;20041;-58
2024/03/17 08:40:27;;;;;;;3.22;1.90;;;;;;;;;;5062596;28;20637;-59
2024/03/17 08:42:54;;;;;;;3.20;1.83;;;;;;;;;;5060705;28;20044;-60
2024/03/17 08:45:21;;;;;;;4.13;1.85;;;;;;;;;;5066018;28;20075;-59
2024/03/17 08:47:53;;;;;;;2.20;1.83;;;;;;;;;;5059641;28;20052;-62
2024/03/17 08:50:20;;;;;;;2.72;2.00;;;;;;;;;;5066041;28;20549;-58
2024/03/17 08:52:48;;;;;;;1.90;1.60;;;;;;;;;;5060092;28;20475;-58
2024/03/17 08:55:16;;;;;;;2.83;2.13;;;;;;;;;;5065247;28;20049;-62
2024/03/17 08:57:44;;;;;;;2.05;1.85;;;;;;;;;;5067626;28;20045;-61
2024/03/17 09:00:12;;;;;;;2.25;1.58;;;;;;;;;;5068534;28;20498;-59
2024/03/17 09:02:41;;;;;;;3.45;1.90;;;;;;;;;;5057253;28;20049;-62
2024/03/17 09:05:08;;;;;;;2.47;1.98;;;;;;;;;;5060725;28;20418;-60
2024/03/17 09:07:36;;;;;;;2.92;1.95;;;;;;;;;;5059652;28;20060;-63
2024/03/17 09:10:03;;;;;;;2.28;1.90;;;;;;;;;;5063269;28;20067;-62
2024/03/17 09:12:32;;;;;;;2.13;1.75;;;;;;;;;;5059375;28;20504;-59
2024/03/17 09:15:00;;;;;;;3.70;1.98;;;;;;;;;;5066302;28;20053;-59
2024/03/17 09:17:27;;;;;;;2.13;1.70;;;;;;;;;;5067878;28;20040;-59
2024/03/17 09:19:55;;;;;;;4.30;1.92;;;;;;;;;;5062425;28;20463;-59
2024/03/17 09:22:22;;;;;;;1.88;1.45;;;;;;;;;;5065082;28;20102;-59
2024/03/17 09:24:49;;;;;;;1.60;1.33;;;;;;;;;;5061841;28;20060;-58
2024/03/17 09:27:20;;;;;;;1.80;1.38;;;;;;;;;;5062008;28;20057;-60
2024/03/17 09:29:49;;;;;;;2.03;1.65;;;;;;;;;;5059221;28;20056;-59
2024/03/17 09:32:17;;;;;;;1.52;1.35;;;;;;;;;;5064957;28;20082;-58
2024/03/17 09:34:48;;;;;;;1.55;1.33;;;;;;;;;;5065335;28;20044;-59
2024/03/17 09:37:16;;;;;;;2.42;1.75;;;;;;;;;;5062180;28;20094;-60
2024/03/17 09:39:44;;;;;;;2.80;1.80;;;;;;;;;;5060879;28;20399;-60
2024/03/17 09:42:17;;;;;;;2.67;1.70;;;;;;;;;;5063040;28;20455;-58
2024/03/17 09:44:47;;;;;;;1.98;1.50;;;;;;;;;;5068293;28;20049;-59
2024/03/17 09:47:20;;;;;;;1.48;1.38;;;;;;;;;;5060641;28;20049;-63
2024/03/17 09:49:48;;;;;;;2.53;1.63;;;;;;;;;;5067275;28;20398;-59
2024/03/17 09:52:19;;;;;;;4.25;1.70;;;;;;;;;;5065091;28;20048;-62
2024/03/17 09:54:47;;;;;;;1.73;1.50;;;;;;;;;;5066676;28;20068;-59
2024/03/17 09:57:18;;;;;;;1.60;1.30;;;;;;;;;;5065087;28;20052;-61
2024/03/17 09:59:51;;;;;;;1.77;1.50;;;;;;;;;;5068103;28;20107;-61
2024/03/17 10:02:20;;;;;;;2.30;1.65;;;;;;;;;;5060791;28;20444;-60
2024/03/17 10:04:47;;;;;;;1.90;1.40;;;;;;;;;;5064103;28;20071;-59
2024/03/17 10:07:15;;;;;;;1.48;1.17;;;;;;;;;;5067176;28;20056;-61
2024/03/17 10:09:44;;;;;;;2.30;1.10;;;;;;;;;;5068742;28;20067;-60
2024/03/17 10:12:27;;;;;;;2.35;1.30;;;;;;;;;;5065470;28;20409;-63
2024/03/17 10:15:00;;;;;;;2.10;1.17;;;;;;;;;;5058760;28;20547;-61
2024/03/17 10:17:33;;;;;;;3.08;1.25;;;;;;;;;;5057802;28;20051;-59
2024/03/17 10:20:15;;;;;;;1.63;1.38;;;;;;;;;;5068684;28;20049;-59
2024/03/17 10:22:44;;;;;;;1.95;1.30;;;;;;;;;;5066515;28;20064;-61
2024/03/17 10:25:11;;;;;;;1.35;1.00;;;;;;;;;;5066806;28;20044;-60
2024/03/17 10:27:45;;;;;;;1.35;1.00;;;;;;;;;;5064494;28;20044;-59
2024/03/17 10:30:19;;;;;;;1.55;1.00;;;;;;;;;;5067910;28;20051;-60
2024/03/17 10:32:48;;;;;;;1.00;0.90;;;;;;;;;;5062717;28;20553;-63
2024/03/17 10:35:27;;;;;;;0.95;0.85;;;;;;;;;;5061011;28;20049;-59
2024/03/17 10:37:55;;;;;;;1.30;1.10;;;;;;;;;;5074573;28;20113;-61
2024/03/17 10:40:23;;;;;;;1.65;1.08;;;;;;;;;;5065291;28;20083;-60
2024/03/17 10:42:51;;;;;;;3.75;1.08;;;;;;;;;;5068192;28;20146;-62
2024/03/17 10:45:18;;;;;;;1.23;0.98;;;;;;;;;;5063100;28;20045;-61
2024/03/17 10:47:49;;;;;;;1.17;0.98;;;;;;;;;;5059919;28;20163;-60
2024/03/17 10:50:18;;;;;;;2.20;1.10;;;;;;;;;;5066966;28;20450;-61
2024/03/17 10:52:49;;;;;;;1.42;0.90;;;;;;;;;;5065623;28;20082;-62
2024/03/17 10:55:24;;;;;;;2.00;0.95;;;;;;;;;;5067072;28;20048;-61
2024/03/17 10:57:51;;;;;;;;;;;;;;;;;;5067194;28;20045;-60
2024/03/17 11:00:21;;;;;;;2.65;0.98;;;;;;;;;;5065291;28;19982;-62
2024/03/17 11:02:51;;;;;;;4.25;0.70;;;;;;;;;;5059060;28;20056;-59
2024/03/17 11:05:20;;;;;;;1.98;1.02;;;;;;;;;;5067411;28;20052;-70
2024/03/17 11:07:49;;;;;;;1.23;0.93;;;;;;;;;;5065084;28;20106;-63
2024/03/17 11:10:18;;;;;;;0.98;0.80;;;;;;;;;;5066232;28;20526;-60
2024/03/17 11:12:47;;;;;;;0.85;0.80;;;;;;;;;;5065073;28;20421;-60
2024/03/17 11:15:36;;;;;;;1.10;0.60;;;;;;;;;;5068171;28;20057;-60
2024/03/17 11:18:22;;;;;;;1.08;0.70;;;;;;;;;;5060728;28;20497;-61
2024/03/17 11:20:59;;;;;;;1.75;1.00;;;;;;;;;;5066181;28;20071;-59
2024/03/17 11:23:30;;;;;;;0.80;0.80;;;;;;;;;;5066433;28;20055;-60
2024/03/17 11:25:58;;;;;;;2.63;0.85;;;;;;;;;;5062285;28;20489;-59
2024/03/17 11:28:44;;;;;;;1.95;0.63;;;;;;;;;;5064992;28;20055;-59
2024/03/17 11:31:26;;;;;;;1.33;0.85;;;;;;;;;;5068356;28;20531;-62
2024/03/17 11:33:55;;;;;;;0.70;0.70;;;;;;;;;;5060109;28;20055;-62
2024/03/17 11:36:36;;;;;;;1.73;0.77;;;;;;;;;;5065216;28;20062;-59
2024/03/17 11:39:06;;;;;;;1.33;0.70;;;;;;;;;;5063059;28;20049;-61
2024/03/17 11:41:43;;;;;;;1.55;0.73;;;;;;;;;;5059380;28;20534;-60
2024/03/17 11:44:18;;;;;;;1.40;0.80;;;;;;;;;;5054003;28;20418;-59
2024/03/17 11:46:45;;;;;;;1.13;0.65;;;;;;;;;;5061848;28;20406;-58
2024/03/17 11:49:17;;;;;;;0.70;0.70;;;;;;;;;;5064819;28;20049;-65
2024/03/17 11:51:47;;;;;;;1.60;0.80;;;;;;;;;;5066944;28;20055;-61
2024/03/17 11:54:18;;;;;;;0.98;0.80;;;;;;;;;;5064389;28;20256;-62
2024/03/17 11:56:46;;;;;;;4.47;1.10;;;;;;;;;;5053971;28;20045;-59
2024/03/17 11:59:14;;;;;;;1.30;0.60;;;;;;;;;;5038640;28;20379;-61
2024/03/17 12:01:40;;;;;;;2.17;0.95;;;;;;;;;;5044389;28;20117;-60
2024/03/17 12:04:08;;;;;;;1.80;0.82;;;;;;;;;;5047484;28;20252;-61
2024/03/17 12:06:34;;;;;;;1.55;0.77;;;;;;;;;;5044727;28;20049;-61
2024/03/17 12:09:20;;;;;;;2.42;1.00;;;;;;;;;;5047330;28;20502;-59
2024/03/17 12:11:47;;;;;;;2.08;0.82;;;;;;;;;;5044069;28;20425;-58
2024/03/17 12:14:16;;;;;;;1.58;0.90;;;;;;;;;;5051254;28;20442;-60
2024/03/17 12:16:53;;;;;;;1.23;0.82;;;;;;;;;;5048916;28;20041;-59
2024/03/17 12:19:21;;;;;;;1.70;1.05;;;;;;;;;;5062369;28;20048;-59
2024/03/17 12:21:49;;;;;;;1.50;0.80;;;;;;;;;;5063207;28;20044;-59
2024/03/17 12:24:19;;;;;;;2.22;0.80;;;;;;;;;;5064892;28;20052;-59
2024/03/17 12:26:46;;;;;;;3.70;0.88;;;;;;;;;;5059145;28;20048;-61
2024/03/17 12:29:25;;;;;;;0.90;0.70;;;;;;;;;;5061784;28;20060;-61
2024/03/17 12:31:51;;;;;;;0.90;0.65;;;;;;;;;;5059464;28;20520;-58
2024/03/17 12:34:20;;;;;;;1.58;0.70;;;;;;;;;;5066350;28;20146;-58
2024/03/17 12:36:46;;;;;;;2.33;0.70;;;;;;;;;;5060648;28;20052;-59
2024/03/17 12:39:19;;;;;;;1.20;0.70;;;;;;;;;;5063776;28;20573;-58
2024/03/17 12:41:46;;;;;;;2.05;0.90;;;;;;;;;;5060762;28;20052;-59
2024/03/17 12:44:23;;;;;;;1.45;0.70;;;;;;;;;;5065430;28;20356;-57
2024/03/17 12:46:55;;;;;;;4.15;0.80;;;;;;;;;;5064567;28;20049;-58
2024/03/17 12:49:24;;;;;;;1.73;0.70;;;;;;;;;;5066712;28;20512;-59
2024/03/17 12:51:51;;;;;;;1.88;0.77;;;;;;;;;;5061112;28;20052;-61
2024/03/17 12:54:21;;;;;;;2.38;0.80;;;;;;;;;;5064699;28;20548;-60
2024/03/17 13:02:27;;;;;;;1.48;0.65;;;;;;;;;;5044706;28;20398;-58
2024/03/17 13:05:14;;;;;;;2.95;0.75;;;;;;;;;;5046514;28;20071;-58
2024/03/17 13:07:41;;;;;;;2.63;0.70;;;;;;;;;;5039964;28;20045;-58
2024/03/17 13:10:11;;;;;;;1.50;0.80;;;;;;;;;;5037736;28;20044;-62
2024/03/17 13:12:38;;;;;;;2.08;0.70;;;;;;;;;;5041166;28;20087;-58
2024/03/17 13:15:06;;;;;;;1.52;0.82;;;;;;;;;;5045455;28;20044;-59
2024/03/17 13:17:34;;;;;;;1.60;0.80;;;;;;;;;;5045204;28;20119;-60
2024/03/17 13:20:02;;;;;;;1.73;0.70;;;;;;;;;;5043710;28;20050;-59
2024/03/17 13:22:29;;;;;;;1.02;0.70;;;;;;;;;;5045075;28;20106;-59
2024/03/17 13:24:57;;;;;;;0.57;0.55;;;;;;;;;;5041753;28;20202;-62
2024/03/17 13:27:26;;;;;;;1.23;0.63;;;;;;;;;;5056031;28;20447;-61
2024/03/17 13:29:53;;;;;;;1.30;0.70;;;;;;;;;;5063952;28;20056;-59
2024/03/17 13:32:21;;;;;;;1.70;0.73;;;;;;;;;;5080154;28;20098;-58
2024/03/17 13:34:50;;;;;;;1.00;0.70;;;;;;;;;;5081148;28;20099;-59
2024/03/17 13:37:17;;;;;;;1.00;0.85;;;;;;;;;;5062194;28;20044;-59
2024/03/17 13:39:45;;;;;;;3.33;1.02;;;;;;;;;;5059059;28;20053;-59
2024/03/17 13:42:13;;;;;;;0.82;0.55;;;;;;;;;;5068098;28;20417;-58
2024/03/17 13:44:42;;;;;;;0.65;0.60;;;;;;;;;;5065091;28;20118;-58
2024/03/17 13:47:09;;;;;;;2.25;0.68;;;;;;;;;;5065162;28;20036;-57
2024/03/17 13:49:37;;;;;;;0.52;0.50;;;;;;;;;;5065324;28;20049;-58
2024/03/17 13:52:04;;;;;;;0.88;0.75;;;;;;;;;;5066078;28;20418;-59
2024/03/17 13:54:32;;;;;;;0.98;0.60;;;;;;;;;;5080446;28;20048;-57
2024/03/17 13:57:02;;;;;;;2.33;0.85;;;;;;;;;;5069807;28;20049;-58
2024/03/17 13:59:29;;;;;;;0.90;0.50;;;;;;;;;;5080952;28;20057;-58
2024/03/17 14:01:58;;;;;;;1.05;0.63;;;;;;;;;;5060214;28;20053;-58
2024/03/17 14:04:25;;;;;;;1.08;0.90;;;;;;;;;;5083545;28;20282;-58
2024/03/17 14:06:53;;;;;;;1.77;0.75;;;;;;;;;;5061348;28;20510;-61
2024/03/17 14:09:21;;;;;;;1.52;0.70;;;;;;;;;;5048873;28;20061;-58
2024/03/17 14:11:50;;;;;;;1.42;0.65;;;;;;;;;;5047313;28;20633;-57
2024/03/17 14:14:18;;;;;;;2.33;0.90;;;;;;;;;;5044369;28;20852;-58
2024/03/17 14:16:45;;;;;;;1.50;0.70;;;;;;;;;;5050012;28;20094;-59
2024/03/17 14:19:14;;;;;;;1.60;0.80;;;;;;;;;;5058510;28;20498;-58
2024/03/17 14:21:41;;;;;;;1.55;0.80;;;;;;;;;;5063367;28;20474;-59
2024/03/17 14:24:10;;;;;;;1.75;0.65;;;;;;;;;;5066774;28;20512;-57
2024/03/17 14:26:37;;;;;;;1.00;0.60;;;;;;;;;;5059288;28;20036;-59
2024/03/17 14:29:05;;;;;;;1.25;0.60;;;;;;;;;;5065217;28;20496;-58
2024/03/17 14:31:35;;;;;;;0.60;0.60;;;;;;;;;;5058873;28;20056;-65
2024/03/17 14:34:02;;;;;;;1.95;1.13;;;;;;;;;;5059064;28;20055;-58
2024/03/17 14:36:33;;;;;;;1.90;0.90;;;;;;;;;;5065877;28;20048;-58
2024/03/17 14:39:01;;;;;;;1.75;0.82;;;;;;;;;;5065102;28;20455;-57
2024/03/17 14:41:32;;;;;;;2.58;0.88;;;;;;;;;;5060388;28;20060;-59
2024/03/17 14:44:00;;;;;;;1.52;0.77;;;;;;;;;;5065641;28;20438;-59
2024/03/17 14:46:28;;;;;;;1.20;0.70;;;;;;;;;;5063952;28;20057;-57
2024/03/17 14:48:55;;;;;;;4.07;0.90;;;;;;;;;;5068094;28;20052;-57
2024/03/17 14:51:23;;;;;;;2.05;0.80;;;;;;;;;;5059681;28;20059;-60
2024/03/17 14:53:52;;;;;;;5.75;3.40;;;;;;;;;;5066486;28;20497;-60
2024/03/17 14:56:19;;;;;;;5.13;2.20;;;;;;;;;;5064716;28;20114;-60
2024/03/17 14:58:47;;;;;;;1.08;0.82;;;;;;;;;;5067128;28;20126;-60